Time;durP1;ratioP1;P1;durP2;ratioP2;P2;SDS_P1;SDS_P2;PMS_P1;PMS_P2;Temp;Humidity;BMP_temperature;BMP_pressure;BME280_temperature;BME280_humidity;BME280_pressure;Samples;Min_cycle;Max_cycle;Signal;HPM_P1;HPM_P2
2020/07/22 00:02:43;;;;;;;1.73;1.63;;;;;;;21.60;62.55;100997.20;;;;-62
2020/07/22 00:05:43;;;;;;;1.88;1.72;;;;;;;21.60;62.54;100995.30;;;;-62
2020/07/22 00:08:43;;;;;;;1.89;1.70;;;;;;;21.59;62.51;100992.85;;;;-60
2020/07/22 00:11:43;;;;;;;1.98;1.69;;;;;;;21.58;62.56;100990.25;;;;-60
2020/07/22 00:14:43;;;;;;;2.09;1.77;;;;;;;21.59;62.52;100987.88;;;;-62
2020/07/22 00:17:43;;;;;;;1.76;1.60;;;;;;;21.58;62.53;100990.50;;;;-61
2020/07/22 00:20:43;;;;;;;1.81;1.71;;;;;;;21.58;62.52;100992.95;;;;-61
2020/07/22 00:25:43;;;;;;;1.80;1.70;;;;;;;21.57;62.59;100993.17;;;;-61
2020/07/22 00:28:43;;;;;;;1.95;1.71;;;;;;;21.57;62.55;100998.14;;;;-62
2020/07/22 00:31:43;;;;;;;2.29;1.73;;;;;;;21.56;62.59;100998.06;;;;-61
2020/07/22 00:34:43;;;;;;;2.93;1.75;;;;;;;21.56;62.54;101004.19;;;;-61
2020/07/22 00:37:43;;;;;;;2.09;1.62;;;;;;;21.56;62.59;100999.59;;;;-60
2020/07/22 00:40:43;;;;;;;1.85;1.67;;;;;;;21.56;62.57;101002.04;;;;-61
2020/07/22 00:43:43;;;;;;;2.10;1.79;;;;;;;21.55;62.58;101004.98;;;;-60
2020/07/22 00:48:43;;;;;;;1.70;1.60;;;;;;;21.55;62.57;101018.59;;;;-62
2020/07/22 00:51:43;;;;;;;1.84;1.65;;;;;;;21.55;62.57;101019.50;;;;-62
2020/07/22 00:54:43;;;;;;;1.75;1.65;;;;;;;21.54;62.56;101014.02;;;;-61
2020/07/22 00:57:43;;;;;;;1.63;1.53;;;;;;;21.54;62.58;101016.56;;;;-61
2020/07/22 01:00:43;;;;;;;1.89;1.79;;;;;;;21.54;62.58;101019.23;;;;-62
2020/07/22 01:03:43;;;;;;;2.45;1.75;;;;;;;21.53;62.61;101014.42;;;;-61
2020/07/22 01:06:44;;;;;;;1.80;1.70;;;;;;;21.53;62.62;101016.39;;;;-62
2020/07/22 01:09:43;;;;;;;1.70;1.60;;;;;;;21.52;62.60;101011.09;;;;-62
2020/07/22 01:12:43;;;;;;;1.63;1.53;;;;;;;21.52;62.60;101014.35;;;;-62
2020/07/22 01:15:43;;;;;;;2.11;1.66;;;;;;;21.52;62.59;101018.32;;;;-62
2020/07/22 01:18:43;;;;;;;1.89;1.70;;;;;;;21.52;62.60;101015.39;;;;-62
2020/07/22 01:21:43;;;;;;;1.72;1.62;;;;;;;21.51;62.54;101010.91;;;;-61
2020/07/22 01:24:43;;;;;;;2.35;1.70;;;;;;;21.51;62.58;101006.17;;;;-60
2020/07/22 01:27:43;;;;;;;2.42;1.61;;;;;;;21.50;62.58;101006.51;;;;-62
2020/07/22 01:32:43;;;;;;;1.95;1.60;;;;;;;21.50;62.60;101012.95;;;;-61
2020/07/22 01:35:44;;;;;;;1.97;1.77;;;;;;;21.50;62.53;101005.86;;;;-62
2020/07/22 01:38:43;;;;;;;1.81;1.68;;;;;;;21.50;62.54;101006.48;;;;-60
2020/07/22 01:43:43;;;;;;;1.70;1.60;;;;;;;21.49;62.57;101006.73;;;;-61
2020/07/22 01:46:43;;;;;;;1.71;1.61;;;;;;;21.49;62.54;101002.33;;;;-61
2020/07/22 01:49:43;;;;;;;1.89;1.55;;;;;;;21.49;62.61;100999.88;;;;-60
2020/07/22 01:52:43;;;;;;;1.78;1.68;;;;;;;21.49;62.54;101002.81;;;;-62
2020/07/22 01:55:43;;;;;;;1.93;1.80;;;;;;;21.48;62.61;101000.70;;;;-61
2020/07/22 02:00:44;;;;;;;2.11;1.57;;;;;;;21.48;62.52;100996.84;;;;-61
2020/07/22 02:03:44;;;;;;;2.09;1.67;;;;;;;21.47;62.57;100997.74;;;;-62
2020/07/22 02:06:44;;;;;;;1.74;1.61;;;;;;;21.47;62.60;100995.95;;;;-60
2020/07/22 02:09:43;;;;;;;2.18;1.81;;;;;;;21.48;62.63;100995.81;;;;-61
2020/07/22 02:12:43;;;;;;;1.87;1.60;;;;;;;21.47;62.54;100995.88;;;;-62
2020/07/22 02:15:43;;;;;;;1.70;1.60;;;;;;;21.46;62.57;100992.78;;;;-61
2020/07/22 02:18:43;;;;;;;1.80;1.70;;;;;;;21.47;62.52;100996.52;;;;-60
2020/07/22 02:21:43;;;;;;;2.18;1.67;;;;;;;21.46;62.61;100994.50;;;;-62
2020/07/22 02:24:43;;;;;;;1.83;1.70;;;;;;;21.46;62.63;101000.42;;;;-61
2020/07/22 02:27:43;;;;;;;2.13;1.61;;;;;;;21.45;62.57;101002.95;;;;-61
2020/07/22 02:32:43;;;;;;;1.77;1.67;;;;;;;21.47;62.54;101005.98;;;;-61
2020/07/22 02:35:43;;;;;;;1.70;1.60;;;;;;;21.46;62.57;101002.16;;;;-61
2020/07/22 02:38:43;;;;;;;1.76;1.66;;;;;;;21.45;62.64;101001.89;;;;-60
2020/07/22 02:41:43;;;;;;;1.73;1.63;;;;;;;21.45;62.57;101005.08;;;;-60
2020/07/22 02:44:43;;;;;;;1.89;1.68;;;;;;;21.44;62.61;101006.80;;;;-61
2020/07/22 02:47:43;;;;;;;1.91;1.75;;;;;;;21.44;62.62;101000.03;;;;-60
2020/07/22 02:50:43;;;;;;;1.78;1.68;;;;;;;21.43;62.60;100998.86;;;;-61
2020/07/22 02:53:43;;;;;;;1.93;1.69;;;;;;;21.43;62.60;100995.84;;;;-61
2020/07/22 02:56:44;;;;;;;1.73;1.63;;;;;;;21.42;62.63;100995.61;;;;-61
2020/07/22 02:59:43;;;;;;;1.85;1.75;;;;;;;21.42;62.57;100996.42;;;;-61
2020/07/22 03:02:43;;;;;;;2.68;1.67;;;;;;;21.43;62.61;100993.89;;;;-62
2020/07/22 03:05:43;;;;;;;1.80;1.70;;;;;;;21.41;62.62;100990.33;;;;-60
2020/07/22 03:08:43;;;;;;;2.06;1.81;;;;;;;21.41;62.66;100992.78;;;;-61
2020/07/22 03:11:43;;;;;;;1.73;1.63;;;;;;;21.41;62.63;100991.72;;;;-61
2020/07/22 03:14:43;;;;;;;1.64;1.54;;;;;;;21.41;62.67;100993.27;;;;-60
2020/07/22 03:17:43;;;;;;;1.70;1.60;;;;;;;21.41;62.55;100989.69;;;;-61
2020/07/22 03:20:43;;;;;;;1.86;1.71;;;;;;;21.40;62.59;100994.09;;;;-61
2020/07/22 03:23:43;;;;;;;1.80;1.70;;;;;;;21.41;62.58;100996.86;;;;-61
2020/07/22 03:26:43;;;;;;;1.67;1.57;;;;;;;21.39;62.60;100989.50;;;;-61
2020/07/22 03:29:43;;;;;;;1.87;1.75;;;;;;;21.39;62.57;100991.62;;;;-62
2020/07/22 03:32:43;;;;;;;1.80;1.70;;;;;;;21.39;62.60;100987.22;;;;-61
2020/07/22 03:35:43;;;;;;;1.79;1.69;;;;;;;21.38;62.64;100983.89;;;;-62
2020/07/22 03:38:43;;;;;;;1.86;1.71;;;;;;;21.39;62.56;100987.62;;;;-62
2020/07/22 03:41:43;;;;;;;1.97;1.77;;;;;;;21.38;62.65;100990.33;;;;-61
2020/07/22 03:44:43;;;;;;;1.80;1.70;;;;;;;21.38;62.58;100987.14;;;;-61
2020/07/22 03:47:43;;;;;;;1.74;1.64;;;;;;;21.38;62.61;100987.72;;;;-61
2020/07/22 03:50:43;;;;;;;1.80;1.70;;;;;;;21.37;62.61;100989.16;;;;-61
2020/07/22 03:53:43;;;;;;;2.00;1.80;;;;;;;21.37;62.55;100992.86;;;;-61
2020/07/22 03:56:43;;;;;;;2.13;1.80;;;;;;;21.37;62.61;100990.14;;;;-61
2020/07/22 03:59:43;;;;;;;1.83;1.70;;;;;;;21.37;62.57;100996.66;;;;-61
2020/07/22 04:02:43;;;;;;;1.99;1.70;;;;;;;21.36;62.57;100995.53;;;;-61
2020/07/22 04:05:43;;;;;;;1.82;1.72;;;;;;;21.36;62.63;101003.93;;;;-60
2020/07/22 04:08:43;;;;;;;1.82;1.66;;;;;;;21.36;62.64;100998.22;;;;-60
2020/07/22 04:11:43;;;;;;;1.96;1.86;;;;;;;21.35;62.60;100997.90;;;;-61
2020/07/22 04:14:43;;;;;;;1.86;1.76;;;;;;;21.36;62.62;100999.69;;;;-61
2020/07/22 04:17:43;;;;;;;1.91;1.69;;;;;;;21.36;62.51;100996.34;;;;-60
2020/07/22 04:20:43;;;;;;;1.83;1.70;;;;;;;21.35;62.55;100998.71;;;;-61
2020/07/22 04:23:43;;;;;;;1.95;1.80;;;;;;;21.36;62.57;101003.36;;;;-61
2020/07/22 04:26:43;;;;;;;1.75;1.65;;;;;;;21.36;62.63;101008.00;;;;-60
2020/07/22 04:29:43;;;;;;;1.83;1.73;;;;;;;21.35;62.63;101007.41;;;;-60
2020/07/22 04:32:43;;;;;;;1.80;1.70;;;;;;;21.35;62.59;101004.72;;;;-61
2020/07/22 04:35:43;;;;;;;1.95;1.80;;;;;;;21.35;62.64;101005.78;;;;-62
2020/07/22 04:38:43;;;;;;;1.78;1.68;;;;;;;21.34;62.67;101007.66;;;;-61
2020/07/22 04:41:43;;;;;;;1.90;1.80;;;;;;;21.34;62.68;101007.98;;;;-60
2020/07/22 04:44:43;;;;;;;1.83;1.73;;;;;;;21.34;62.66;101002.12;;;;-60
2020/07/22 04:47:43;;;;;;;1.79;1.69;;;;;;;21.34;62.71;101002.85;;;;-61
2020/07/22 04:50:43;;;;;;;1.88;1.78;;;;;;;21.33;62.60;101006.66;;;;-61
2020/07/22 04:53:43;;;;;;;1.82;1.72;;;;;;;21.33;62.67;101003.41;;;;-60
2020/07/22 04:56:43;;;;;;;2.09;1.89;;;;;;;21.34;62.66;100998.78;;;;-62
2020/07/22 04:59:43;;;;;;;2.16;1.99;;;;;;;21.32;62.63;100998.52;;;;-62
2020/07/22 05:02:43;;;;;;;1.80;1.70;;;;;;;21.33;62.57;100995.16;;;;-61
2020/07/22 05:05:43;;;;;;;1.98;1.88;;;;;;;21.32;62.62;100989.70;;;;-61
2020/07/22 05:08:43;;;;;;;1.87;1.77;;;;;;;21.32;62.66;100989.22;;;;-61
2020/07/22 05:11:43;;;;;;;2.19;1.99;;;;;;;21.32;62.65;100988.49;;;;-62
2020/07/22 05:14:43;;;;;;;1.86;1.76;;;;;;;21.31;62.61;100990.20;;;;-61
2020/07/22 05:17:43;;;;;;;1.97;1.80;;;;;;;21.31;62.66;100990.37;;;;-61
2020/07/22 05:20:43;;;;;;;2.10;1.90;;;;;;;21.31;62.61;100988.88;;;;-61
2020/07/22 05:23:43;;;;;;;2.10;1.90;;;;;;;21.31;62.63;100991.73;;;;-61
2020/07/22 05:26:43;;;;;;;2.13;1.85;;;;;;;21.31;62.62;100990.50;;;;-61
2020/07/22 05:29:43;;;;;;;1.82;1.72;;;;;;;21.30;62.63;100991.65;;;;-60
2020/07/22 05:32:43;;;;;;;2.41;1.90;;;;;;;21.30;62.65;100996.37;;;;-61
2020/07/22 05:35:43;;;;;;;1.90;1.80;;;;;;;21.30;62.53;100992.70;;;;-60
2020/07/22 05:38:43;;;;;;;2.13;1.96;;;;;;;21.30;62.53;100989.20;;;;-62
2020/07/22 05:41:43;;;;;;;2.10;1.90;;;;;;;21.30;62.57;100989.53;;;;-61
2020/07/22 05:44:43;;;;;;;2.09;1.91;;;;;;;21.30;62.49;100983.09;;;;-61
2020/07/22 05:47:44;;;;;;;2.02;1.80;;;;;;;21.29;62.53;100979.51;;;;-60
2020/07/22 05:50:43;;;;;;;1.81;1.71;;;;;;;21.30;62.50;100988.47;;;;-61
2020/07/22 05:53:43;;;;;;;2.59;1.88;;;;;;;21.30;62.60;100987.98;;;;-61
2020/07/22 05:56:43;;;;;;;2.00;1.80;;;;;;;21.30;62.48;100985.30;;;;-60
2020/07/22 05:59:43;;;;;;;1.99;1.89;;;;;;;21.29;62.57;100987.83;;;;-61
2020/07/22 06:02:43;;;;;;;1.90;1.80;;;;;;;21.29;62.55;100985.52;;;;-61
2020/07/22 06:05:43;;;;;;;1.79;1.69;;;;;;;21.29;62.47;100984.70;;;;-60
2020/07/22 06:08:43;;;;;;;1.90;1.80;;;;;;;21.29;62.43;100978.59;;;;-61
2020/07/22 06:11:43;;;;;;;2.05;1.87;;;;;;;21.30;62.52;100983.17;;;;-60
2020/07/22 06:14:43;;;;;;;2.16;1.96;;;;;;;21.29;62.47;100982.17;;;;-62
2020/07/22 06:17:43;;;;;;;2.25;1.89;;;;;;;21.29;62.45;100975.73;;;;-60
2020/07/22 06:20:43;;;;;;;1.89;1.70;;;;;;;21.28;62.44;100970.69;;;;-62
2020/07/22 06:23:43;;;;;;;2.00;1.82;;;;;;;21.29;62.41;100975.16;;;;-62
2020/07/22 06:26:43;;;;;;;2.49;1.80;;;;;;;21.28;62.39;100981.53;;;;-62
2020/07/22 06:29:43;;;;;;;1.98;1.81;;;;;;;21.28;62.35;100987.56;;;;-61
2020/07/22 06:32:43;;;;;;;2.13;1.93;;;;;;;21.28;62.49;100990.49;;;;-60
2020/07/22 06:35:43;;;;;;;1.80;1.70;;;;;;;21.28;62.36;100990.82;;;;-61
2020/07/22 06:38:43;;;;;;;1.89;1.74;;;;;;;21.27;62.39;100991.23;;;;-60
2020/07/22 06:41:43;;;;;;;1.79;1.61;;;;;;;21.27;62.34;100989.33;;;;-61
2020/07/22 06:44:43;;;;;;;1.92;1.81;;;;;;;21.27;62.27;100988.70;;;;-60
2020/07/22 06:47:43;;;;;;;1.87;1.77;;;;;;;21.27;62.36;100987.23;;;;-62
2020/07/22 06:50:43;;;;;;;1.85;1.75;;;;;;;21.28;62.33;100990.34;;;;-61
2020/07/22 06:53:43;;;;;;;2.10;1.90;;;;;;;21.27;62.35;100991.86;;;;-61
2020/07/22 06:56:43;;;;;;;2.11;1.78;;;;;;;21.26;62.20;100991.70;;;;-62
2020/07/22 06:59:43;;;;;;;2.03;1.83;;;;;;;21.27;62.26;100998.38;;;;-61
2020/07/22 07:02:43;;;;;;;1.99;1.79;;;;;;;21.26;62.15;100994.30;;;;-60
2020/07/22 07:05:43;;;;;;;2.73;1.80;;;;;;;21.26;62.04;100991.70;;;;-61
2020/07/22 07:08:43;;;;;;;1.98;1.79;;;;;;;21.26;62.08;100991.13;;;;-60
2020/07/22 07:11:43;;;;;;;1.81;1.71;;;;;;;21.26;62.12;100991.62;;;;-60
2020/07/22 07:14:43;;;;;;;1.82;1.72;;;;;;;21.26;62.22;100994.31;;;;-60
2020/07/22 07:17:43;;;;;;;1.99;1.77;;;;;;;21.26;62.19;100990.48;;;;-61
2020/07/22 07:20:43;;;;;;;2.09;1.82;;;;;;;21.26;62.22;100989.34;;;;-61
2020/07/22 07:23:43;;;;;;;1.80;1.70;;;;;;;21.26;62.31;100986.97;;;;-60
2020/07/22 07:26:43;;;;;;;3.86;1.93;;;;;;;21.25;55.49;100985.89;;;;-58
2020/07/22 07:29:43;;;;;;;3.75;2.01;;;;;;;21.13;54.05;100984.03;;;;-57
2020/07/22 07:32:43;;;;;;;3.43;1.97;;;;;;;21.09;54.18;100979.92;;;;-57
2020/07/22 07:35:43;;;;;;;4.80;2.24;;;;;;;21.07;52.67;100978.03;;;;-57
2020/07/22 07:38:43;;;;;;;4.07;1.91;;;;;;;21.09;52.25;100975.19;;;;-54
2020/07/22 07:41:43;;;;;;;3.17;1.83;;;;;;;21.06;52.02;100976.95;;;;-57
2020/07/22 07:44:43;;;;;;;6.18;2.05;;;;;;;21.07;52.70;100973.55;;;;-56
2020/07/22 07:47:43;;;;;;;3.70;1.69;;;;;;;21.09;53.22;100971.45;;;;-54
2020/07/22 07:53:55;;;;;;;3.83;1.69;;;;;;;21.08;52.55;100965.96;;;;-59
2020/07/22 07:56:43;;;;;;;4.91;1.84;;;;;;;21.10;53.12;100967.86;;;;-58
2020/07/22 07:59:43;;;;;;;4.83;1.73;;;;;;;21.11;53.35;100966.25;;;;-59
2020/07/22 08:02:43;;;;;;;4.17;1.60;;;;;;;21.11;52.49;100965.84;;;;-54
2020/07/22 08:05:43;;;;;;;5.32;1.77;;;;;;;21.10;52.08;100965.91;;;;-53
2020/07/22 08:08:43;;;;;;;3.71;1.69;;;;;;;21.11;52.24;100965.76;;;;-55
2020/07/22 08:11:43;;;;;;;3.47;1.71;;;;;;;21.12;51.93;100963.14;;;;-55
2020/07/22 08:14:43;;;;;;;2.72;1.63;;;;;;;21.13;52.61;100967.48;;;;-56
2020/07/22 08:17:43;;;;;;;4.27;1.77;;;;;;;21.12;52.19;100964.86;;;;-57
2020/07/22 08:20:43;;;;;;;2.46;1.63;;;;;;;21.12;52.93;100964.61;;;;-55
2020/07/22 08:23:43;;;;;;;2.57;1.58;;;;;;;21.12;52.52;100957.60;;;;-55
2020/07/22 08:26:43;;;;;;;3.27;1.59;;;;;;;21.13;52.44;100953.80;;;;-57
2020/07/22 08:29:43;;;;;;;4.79;1.73;;;;;;;21.14;52.95;100953.95;;;;-55
2020/07/22 08:32:43;;;;;;;2.63;1.81;;;;;;;21.15;53.49;100949.09;;;;-55
2020/07/22 08:35:43;;;;;;;5.63;1.73;;;;;;;21.15;53.13;100946.16;;;;-56
2020/07/22 08:38:43;;;;;;;4.27;1.89;;;;;;;21.15;52.89;100942.56;;;;-56
2020/07/22 08:41:43;;;;;;;7.59;1.98;;;;;;;21.15;52.83;100940.69;;;;-61
2020/07/22 08:44:43;;;;;;;3.69;1.80;;;;;;;21.16;53.41;100936.28;;;;-59
2020/07/22 08:47:43;;;;;;;5.90;1.69;;;;;;;21.18;53.85;100935.23;;;;-58
2020/07/22 08:50:43;;;;;;;4.90;1.71;;;;;;;21.19;54.17;100925.96;;;;-59
2020/07/22 08:53:43;;;;;;;4.52;1.98;;;;;;;21.21;54.57;100930.05;;;;-58
2020/07/22 08:56:43;;;;;;;4.09;1.91;;;;;;;21.21;54.92;100925.66;;;;-59
2020/07/22 08:59:43;;;;;;;5.75;1.75;;;;;;;21.21;55.15;100920.76;;;;-58
2020/07/22 09:02:43;;;;;;;5.43;1.84;;;;;;;21.23;55.38;100921.31;;;;-59
2020/07/22 09:05:43;;;;;;;3.44;1.93;;;;;;;21.24;55.56;100917.84;;;;-57
2020/07/22 09:08:43;;;;;;;3.78;1.85;;;;;;;21.24;55.88;100922.89;;;;-57
2020/07/22 09:11:43;;;;;;;3.52;1.69;;;;;;;21.24;55.94;100922.23;;;;-57
2020/07/22 09:14:43;;;;;;;5.75;2.05;;;;;;;21.24;56.20;100913.59;;;;-57
2020/07/22 09:17:43;;;;;;;3.61;1.82;;;;;;;21.25;56.19;100914.08;;;;-57
2020/07/22 09:20:43;;;;;;;3.79;2.20;;;;;;;21.26;56.41;100909.78;;;;-57
2020/07/22 09:23:43;;;;;;;3.68;2.33;;;;;;;21.26;56.52;100907.82;;;;-58
2020/07/22 09:26:43;;;;;;;4.08;2.25;;;;;;;21.26;56.57;100911.41;;;;-59
2020/07/22 09:29:44;;;;;;;4.86;2.21;;;;;;;21.27;56.69;100906.34;;;;-57
2020/07/22 09:32:43;;;;;;;5.15;2.28;;;;;;;21.27;56.77;100904.98;;;;-57
2020/07/22 09:35:43;;;;;;;4.13;2.33;;;;;;;21.28;56.89;100907.42;;;;-57
2020/07/22 09:38:43;;;;;;;5.82;2.62;;;;;;;21.28;56.97;100902.70;;;;-57
2020/07/22 09:41:43;;;;;;;4.10;2.73;;;;;;;21.28;57.06;100906.03;;;;-59
2020/07/22 09:44:43;;;;;;;5.56;2.97;;;;;;;21.28;57.11;100893.33;;;;-59
2020/07/22 09:47:43;;;;;;;5.15;2.89;;;;;;;21.29;57.30;100892.94;;;;-55
2020/07/22 09:50:43;;;;;;;5.02;3.01;;;;;;;21.33;57.46;100888.53;;;;-56
2020/07/22 09:53:43;;;;;;;5.99;3.17;;;;;;;21.34;57.60;100890.84;;;;-58
2020/07/22 09:56:43;;;;;;;5.94;3.27;;;;;;;21.36;57.71;100880.57;;;;-51
2020/07/22 09:59:43;;;;;;;7.07;3.29;;;;;;;21.37;57.84;100874.37;;;;-57
2020/07/22 10:02:43;;;;;;;5.56;3.02;;;;;;;21.39;57.94;100870.47;;;;-52
2020/07/22 10:05:43;;;;;;;6.09;3.25;;;;;;;21.38;58.00;100866.88;;;;-52
2020/07/22 10:08:43;;;;;;;7.02;3.37;;;;;;;21.39;58.13;100864.02;;;;-51
2020/07/22 10:11:43;;;;;;;7.50;3.24;;;;;;;21.39;58.15;100862.63;;;;-52
2020/07/22 10:14:43;;;;;;;7.65;3.20;;;;;;;21.39;58.17;100858.72;;;;-53
2020/07/22 10:17:43;;;;;;;7.60;3.36;;;;;;;21.39;58.26;100854.42;;;;-53
2020/07/22 10:20:43;;;;;;;4.77;2.96;;;;;;;21.41;58.29;100851.23;;;;-51
2020/07/22 10:23:43;;;;;;;7.00;3.49;;;;;;;21.42;58.39;100847.98;;;;-53
2020/07/22 10:26:43;;;;;;;8.17;3.08;;;;;;;21.44;58.37;100846.48;;;;-50
2020/07/22 10:29:43;;;;;;;7.42;3.23;;;;;;;21.46;58.49;100838.47;;;;-60
2020/07/22 10:32:43;;;;;;;7.01;3.13;;;;;;;21.45;58.44;100836.36;;;;-60
2020/07/22 10:35:43;;;;;;;6.18;3.11;;;;;;;21.47;58.47;100837.19;;;;-62
2020/07/22 10:38:43;;;;;;;7.35;3.13;;;;;;;21.45;58.52;100833.75;;;;-53
2020/07/22 10:41:43;;;;;;;7.19;3.27;;;;;;;21.47;58.59;100826.75;;;;-51
2020/07/22 10:44:43;;;;;;;7.14;3.05;;;;;;;21.48;58.65;100818.26;;;;-54
2020/07/22 10:47:43;;;;;;;5.51;2.87;;;;;;;21.48;58.63;100817.22;;;;-54
2020/07/22 10:50:43;;;;;;;5.61;3.24;;;;;;;21.50;58.69;100811.69;;;;-47
2020/07/22 10:53:43;;;;;;;8.81;3.05;;;;;;;21.50;58.64;100806.87;;;;-52
2020/07/22 10:56:43;;;;;;;6.13;2.84;;;;;;;21.50;58.71;100806.06;;;;-52
2020/07/22 10:59:43;;;;;;;6.02;3.03;;;;;;;21.50;58.73;100796.52;;;;-51
2020/07/22 11:02:43;;;;;;;6.86;3.07;;;;;;;21.50;58.75;100789.40;;;;-52
2020/07/22 11:05:43;;;;;;;5.87;2.69;;;;;;;21.49;58.69;100785.56;;;;-52
2020/07/22 11:08:43;;;;;;;7.89;3.08;;;;;;;21.49;58.76;100782.55;;;;-51
2020/07/22 11:11:43;;;;;;;6.61;2.99;;;;;;;21.48;58.82;100780.85;;;;-52
2020/07/22 11:14:43;;;;;;;4.58;2.81;;;;;;;21.48;58.78;100776.53;;;;-52
2020/07/22 11:17:43;;;;;;;6.13;2.69;;;;;;;21.49;58.79;100777.50;;;;-52
2020/07/22 11:20:43;;;;;;;5.05;2.80;;;;;;;21.48;58.79;100771.31;;;;-52
2020/07/22 11:23:43;;;;;;;7.47;2.80;;;;;;;21.48;58.82;100774.06;;;;-52
2020/07/22 11:26:43;;;;;;;4.88;2.59;;;;;;;21.48;58.83;100765.69;;;;-52
2020/07/22 11:29:43;;;;;;;5.99;2.77;;;;;;;21.47;58.80;100755.72;;;;-52
2020/07/22 11:32:43;;;;;;;7.75;2.85;;;;;;;21.47;58.80;100753.11;;;;-52
2020/07/22 11:35:43;;;;;;;5.38;2.57;;;;;;;21.47;58.83;100751.73;;;;-52
2020/07/22 11:38:43;;;;;;;4.94;2.75;;;;;;;21.47;58.82;100746.52;;;;-51
2020/07/22 11:41:43;;;;;;;3.95;2.64;;;;;;;21.47;58.78;100740.48;;;;-52
2020/07/22 11:44:43;;;;;;;4.44;2.50;;;;;;;21.46;58.86;100737.80;;;;-52
2020/07/22 11:47:43;;;;;;;5.90;2.83;;;;;;;21.46;58.92;100733.06;;;;-52
2020/07/22 11:50:43;;;;;;;8.35;2.89;;;;;;;21.46;58.93;100730.20;;;;-52
2020/07/22 11:53:43;;;;;;;4.58;2.61;;;;;;;21.46;58.88;100726.44;;;;-52
2020/07/22 11:56:43;;;;;;;4.44;2.56;;;;;;;21.47;58.96;100728.73;;;;-52
2020/07/22 11:59:43;;;;;;;3.95;2.40;;;;;;;21.46;59.08;100717.00;;;;-51
2020/07/22 12:02:43;;;;;;;6.06;2.45;;;;;;;21.48;59.00;100718.61;;;;-56
2020/07/22 12:05:43;;;;;;;4.29;2.60;;;;;;;21.49;59.08;100716.51;;;;-60
2020/07/22 12:08:43;;;;;;;5.15;2.63;;;;;;;21.51;59.16;100711.55;;;;-55
2020/07/22 12:11:43;;;;;;;3.34;2.13;;;;;;;21.51;59.20;100708.03;;;;-53
2020/07/22 12:14:43;;;;;;;4.11;2.35;;;;;;;21.52;59.22;100700.38;;;;-54
2020/07/22 12:17:43;;;;;;;4.11;2.55;;;;;;;21.54;59.25;100694.00;;;;-55
2020/07/22 12:20:43;;;;;;;3.72;2.42;;;;;;;21.54;59.26;100690.27;;;;-53
2020/07/22 12:23:43;;;;;;;6.21;2.55;;;;;;;21.56;59.23;100687.98;;;;-61
2020/07/22 12:26:43;;;;;;;4.41;2.54;;;;;;;21.56;59.35;100683.34;;;;-57
2020/07/22 12:29:43;;;;;;;3.23;2.11;;;;;;;21.57;59.35;100682.44;;;;-57
2020/07/22 12:32:43;;;;;;;3.91;2.37;;;;;;;21.58;59.34;100680.39;;;;-57
2020/07/22 12:35:43;;;;;;;3.32;2.25;;;;;;;21.57;59.34;100680.16;;;;-56
2020/07/22 12:38:43;;;;;;;3.85;2.31;;;;;;;21.56;59.33;100671.84;;;;-57
2020/07/22 12:41:43;;;;;;;3.93;2.33;;;;;;;21.56;59.23;100668.34;;;;-56
2020/07/22 12:44:43;;;;;;;4.50;2.32;;;;;;;21.57;59.40;100665.06;;;;-56
2020/07/22 12:47:44;;;;;;;3.34;2.20;;;;;;;21.57;59.28;100660.41;;;;-57
2020/07/22 12:50:43;;;;;;;3.33;2.19;;;;;;;21.57;59.40;100653.89;;;;-57
2020/07/22 12:53:43;;;;;;;3.89;2.20;;;;;;;21.57;59.35;100653.23;;;;-56
2020/07/22 12:56:43;;;;;;;4.11;2.32;;;;;;;21.57;59.32;100652.84;;;;-57
2020/07/22 12:59:43;;;;;;;4.03;2.37;;;;;;;21.56;59.40;100649.25;;;;-57
2020/07/22 13:02:43;;;;;;;3.70;2.29;;;;;;;21.56;59.33;100648.82;;;;-56
2020/07/22 13:05:43;;;;;;;4.23;2.36;;;;;;;21.56;59.38;100640.61;;;;-57
2020/07/22 13:08:43;;;;;;;5.03;2.43;;;;;;;21.56;59.36;100632.78;;;;-57
2020/07/22 13:11:43;;;;;;;4.29;2.50;;;;;;;21.56;59.43;100630.98;;;;-56
2020/07/22 13:14:43;;;;;;;3.93;2.41;;;;;;;21.56;59.52;100630.55;;;;-56
2020/07/22 13:17:43;;;;;;;3.29;2.29;;;;;;;21.56;59.42;100630.39;;;;-56
2020/07/22 13:20:43;;;;;;;4.20;2.39;;;;;;;21.56;59.50;100630.64;;;;-57
2020/07/22 13:23:43;;;;;;;4.48;2.49;;;;;;;21.55;59.52;100633.42;;;;-57
2020/07/22 13:26:43;;;;;;;3.97;2.45;;;;;;;21.55;59.59;100626.16;;;;-57
2020/07/22 13:29:43;;;;;;;5.55;2.61;;;;;;;21.55;59.52;100625.02;;;;-57
2020/07/22 13:32:43;;;;;;;4.29;2.39;;;;;;;21.55;59.62;100623.05;;;;-57
2020/07/22 13:35:43;;;;;;;5.69;2.72;;;;;;;21.55;59.57;100612.79;;;;-56
2020/07/22 13:38:43;;;;;;;4.09;2.55;;;;;;;21.55;59.59;100618.17;;;;-56
2020/07/22 13:41:43;;;;;;;7.11;2.40;;;;;;;21.56;59.68;100619.48;;;;-52
2020/07/22 13:44:43;;;;;;;6.63;2.59;;;;;;;21.58;59.69;100617.36;;;;-51
2020/07/22 13:47:43;;;;;;;6.59;3.14;;;;;;;21.58;59.68;100612.39;;;;-42
2020/07/22 13:50:43;;;;;;;13.44;4.15;;;;;;;21.58;59.75;100607.02;;;;-49
2020/07/22 13:53:43;;;;;;;9.54;4.01;;;;;;;21.58;59.76;100600.87;;;;-49
2020/07/22 13:56:43;;;;;;;9.95;4.25;;;;;;;21.58;59.79;100593.69;;;;-50
2020/07/22 13:59:43;;;;;;;10.77;4.17;;;;;;;21.58;59.79;100595.24;;;;-49
2020/07/22 14:02:43;;;;;;;8.73;4.29;;;;;;;21.57;59.78;100595.42;;;;-49
2020/07/22 14:05:43;;;;;;;7.45;3.84;;;;;;;21.57;59.75;100582.20;;;;-49
2020/07/22 14:08:43;;;;;;;10.07;3.88;;;;;;;21.57;59.79;100585.39;;;;-49
2020/07/22 14:11:43;;;;;;;10.39;4.09;;;;;;;21.57;59.78;100578.21;;;;-49
2020/07/22 14:14:44;;;;;;;10.63;4.09;;;;;;;21.58;59.82;100581.22;;;;-49
2020/07/22 14:17:43;;;;;;;10.85;4.55;;;;;;;21.58;59.77;100579.02;;;;-49
2020/07/22 14:20:43;;;;;;;11.18;3.99;;;;;;;21.58;59.97;100568.90;;;;-52
2020/07/22 16:46:35;;;;;;;15.91;3.61;;;;;;;21.18;61.94;100449.14;;;;-58
2020/07/22 16:49:35;;;;;;;14.29;3.24;;;;;;;21.23;61.57;100448.75;;;;-59
2020/07/22 16:52:35;;;;;;;12.14;3.13;;;;;;;21.27;61.64;100439.27;;;;-57
2020/07/22 16:55:35;;;;;;;8.49;2.91;;;;;;;21.30;61.62;100443.91;;;;-56
2020/07/22 16:58:35;;;;;;;11.10;3.17;;;;;;;21.34;61.55;100444.57;;;;-55
2020/07/22 17:01:35;;;;;;;9.93;2.99;;;;;;;21.36;61.31;100439.27;;;;-55
2020/07/22 17:04:35;;;;;;;9.57;3.11;;;;;;;21.38;61.43;100434.45;;;;-56
2020/07/22 17:07:35;;;;;;;8.49;3.19;;;;;;;21.41;61.25;100439.33;;;;-54
2020/07/22 17:10:35;;;;;;;7.68;2.65;;;;;;;21.44;61.31;100440.11;;;;-50
2020/07/22 17:13:35;;;;;;;9.27;2.93;;;;;;;21.46;61.16;100442.88;;;;-56
2020/07/22 17:16:35;;;;;;;5.95;2.71;;;;;;;21.49;61.05;100440.56;;;;-57
2020/07/22 17:19:35;;;;;;;7.89;2.64;;;;;;;21.51;61.08;100443.50;;;;-56
2020/07/22 17:22:35;;;;;;;8.88;2.71;;;;;;;21.53;61.01;100443.49;;;;-53
2020/07/22 17:25:35;;;;;;;4.71;2.55;;;;;;;21.54;60.90;100435.33;;;;-55
2020/07/22 17:28:35;;;;;;;6.25;3.00;;;;;;;21.56;60.83;100440.89;;;;-55
2020/07/22 17:31:35;;;;;;;8.29;2.66;;;;;;;21.59;60.81;100439.98;;;;-56
2020/07/22 17:34:35;;;;;;;6.59;2.60;;;;;;;21.60;60.91;100439.16;;;;-49
2020/07/22 17:37:35;;;;;;;5.59;2.63;;;;;;;21.61;60.99;100438.02;;;;-50
2020/07/22 17:40:35;;;;;;;5.18;2.53;;;;;;;21.62;60.77;100443.95;;;;-55
2020/07/22 17:43:35;;;;;;;5.94;2.50;;;;;;;21.64;60.61;100445.91;;;;-55
2020/07/22 17:46:35;;;;;;;7.09;2.63;;;;;;;21.65;60.62;100449.67;;;;-54
2020/07/22 17:49:35;;;;;;;6.39;2.56;;;;;;;21.65;60.72;100449.91;;;;-57
2020/07/22 17:52:35;;;;;;;6.49;2.46;;;;;;;21.67;60.72;100452.11;;;;-53
2020/07/22 17:55:35;;;;;;;4.26;2.39;;;;;;;21.68;60.44;100451.61;;;;-54
2020/07/22 17:58:35;;;;;;;5.17;2.44;;;;;;;21.68;60.66;100451.69;;;;-54
2020/07/22 18:01:35;;;;;;;6.87;2.32;;;;;;;21.67;60.70;100455.13;;;;-54
2020/07/22 18:04:35;;;;;;;6.29;2.61;;;;;;;21.67;60.67;100454.72;;;;-54
2020/07/22 18:07:35;;;;;;;8.19;2.55;;;;;;;21.67;60.68;100458.40;;;;-54
2020/07/22 18:14:37;;;;;;;6.91;2.41;;;;;;;21.67;60.63;100451.63;;;;-54
2020/07/22 18:17:46;;;;;;;3.80;2.23;;;;;;;21.67;60.63;100453.41;;;;-54
2020/07/22 18:20:35;;;;;;;5.10;2.30;;;;;;;21.67;60.66;100452.44;;;;-53
2020/07/22 18:23:35;;;;;;;4.34;2.41;;;;;;;21.67;60.64;100450.80;;;;-54
2020/07/22 18:26:43;;;;;;;4.25;2.41;;;;;;;21.67;60.62;100449.34;;;;-54
2020/07/22 18:31:40;;;;;;;4.66;2.41;;;;;;;21.67;60.58;100447.88;;;;-54
2020/07/22 18:32:38;;;;;;;3.64;2.13;;;;;;;21.68;60.63;100444.77;;;;-54
2020/07/22 18:35:38;;;;;;;5.63;2.43;;;;;;;21.68;60.58;100442.97;;;;-54
2020/07/22 18:44:35;;;;;;;4.35;2.39;;;;;;;21.67;60.55;100447.88;;;;-54
2020/07/22 18:47:34;;;;;;;5.74;2.25;;;;;;;21.67;60.58;100448.77;;;;-54
2020/07/22 18:50:35;;;;;;;4.70;2.25;;;;;;;21.67;60.57;100452.59;;;;-54
2020/07/22 18:53:34;;;;;;;4.25;2.33;;;;;;;21.67;60.70;100446.33;;;;-56
2020/07/22 18:56:35;;;;;;;3.70;2.25;;;;;;;21.69;60.69;100447.86;;;;-55
2020/07/22 18:59:35;;;;;;;4.05;2.09;;;;;;;21.71;60.63;100449.25;;;;-59
2020/07/22 19:02:34;;;;;;;4.61;2.13;;;;;;;21.72;60.63;100446.87;;;;-52
2020/07/22 19:05:34;;;;;;;5.28;2.45;;;;;;;21.73;60.61;100448.19;;;;-59
2020/07/22 19:08:34;;;;;;;4.93;2.24;;;;;;;21.74;60.57;100442.38;;;;-55
2020/07/22 19:11:34;;;;;;;9.67;2.40;;;;;;;21.73;60.59;100442.95;;;;-54
2020/07/22 19:14:34;;;;;;;5.79;2.15;;;;;;;21.73;60.67;100443.05;;;;-55
2020/07/22 19:17:36;;;;;;;3.49;2.13;;;;;;;21.75;60.66;100445.78;;;;-52
2020/07/22 19:20:34;;;;;;;3.13;2.11;;;;;;;21.76;60.71;100449.55;;;;-51
2020/07/22 19:23:35;;;;;;;3.04;2.13;;;;;;;21.76;60.70;100445.47;;;;-51
2020/07/22 19:26:34;;;;;;;3.68;2.09;;;;;;;21.78;60.69;100446.45;;;;-53
2020/07/22 19:29:34;;;;;;;3.35;2.08;;;;;;;21.79;60.70;100452.89;;;;-53